Time;durP1;ratioP1;P1;durP2;ratioP2;P2;SDS_P1;SDS_P2;PMS_P1;PMS_P2;Temp;Humidity;BMP_temperature;BMP_pressure;BME280_temperature;BME280_humidity;BME280_pressure;Samples;Min_cycle;Max_cycle;Signal;HPM_P1;HPM_P2
2024/01/08 00:02:11;;;;;;;0.55;0.55;;;;;;;21.80;28.39;101582.16;7394526;19;20007;-58
2024/01/08 00:04:38;;;;;;;0.47;0.47;;;;;;;22.34;27.91;101569.38;7393383;19;20018;-60
2024/01/08 00:07:04;;;;;;;2.30;1.27;;;;;;;20.76;29.24;101569.03;7390036;19;20018;-59
2024/01/08 00:09:30;;;;;;;0.65;0.65;;;;;;;21.39;28.77;101564.00;7391644;19;20454;-59
2024/01/08 00:11:56;;;;;;;1.50;0.85;;;;;;;21.07;28.90;101566.94;7394678;19;20074;-58
2024/01/08 00:14:23;;;;;;;7.03;1.25;;;;;;;20.63;29.17;101580.03;7390352;19;20475;-59
2024/01/08 00:16:49;;;;;;;0.85;0.60;;;;;;;22.55;27.63;101573.47;7391406;19;20352;-59
2024/01/08 00:19:16;;;;;;;1.10;0.82;;;;;;;22.99;27.63;101569.03;7391400;19;20011;-59
2024/01/08 00:21:42;;;;;;;0.77;0.38;;;;;;;22.93;27.13;101573.97;7392151;19;20018;-59
2024/01/08 00:24:08;;;;;;;0.82;0.63;;;;;;;22.63;27.40;101573.00;7391124;19;20539;-59
2024/01/08 00:26:34;;;;;;;2.25;0.95;;;;;;;22.50;27.90;101576.34;7391021;19;20011;-60
2024/01/08 00:29:01;;;;;;;3.60;1.60;;;;;;;22.33;27.76;101579.16;7391029;19;20013;-60
2024/01/08 00:31:28;;;;;;;2.95;1.00;;;;;;;22.22;27.83;101573.47;7391951;19;20014;-60
2024/01/08 00:33:54;;;;;;;0.17;0.15;;;;;;;21.44;28.61;101571.75;7392292;19;20043;-59
2024/01/08 00:36:22;;;;;;;0.17;0.17;;;;;;;19.76;30.36;101575.84;7391260;19;20010;-60
2024/01/08 00:38:48;;;;;;;0.75;0.75;;;;;;;20.21;30.10;101569.38;7391232;19;20014;-60
2024/01/08 00:41:14;;;;;;;1.10;0.45;;;;;;;21.39;29.33;101570.44;7391177;19;20009;-59
2024/01/08 00:43:40;;;;;;;1.92;0.85;;;;;;;22.48;27.85;101574.00;7390083;19;20019;-59
2024/01/08 00:46:06;;;;;;;2.10;1.08;;;;;;;19.52;30.41;101582.53;7390007;19;20451;-59
2024/01/08 00:48:32;;;;;;;0.77;0.77;;;;;;;19.18;31.21;101586.19;7390582;19;20683;-59
2024/01/08 00:50:58;;;;;;;4.60;1.42;;;;;;;18.59;31.41;101590.44;7390858;19;20011;-59
2024/01/08 00:53:25;;;;;;;0.40;0.40;;;;;;;19.84;30.56;101577.00;7390052;19;20010;-59
2024/01/08 00:55:51;;;;;;;0.40;0.40;;;;;;;18.29;32.33;101594.53;7390227;19;20074;-59
2024/01/08 00:58:17;;;;;;;0.68;0.43;;;;;;;20.12;29.74;101573.13;7390581;19;20363;-59
2024/01/08 01:00:43;;;;;;;2.58;0.45;;;;;;;21.51;28.83;101582.56;7388945;19;20038;-59
2024/01/08 01:03:10;;;;;;;2.90;1.08;;;;;;;22.50;27.66;101577.09;7392816;19;20010;-59
2024/01/08 01:05:36;;;;;;;0.22;0.22;;;;;;;21.00;29.02;101573.06;7389890;19;20011;-59
2024/01/08 01:08:02;;;;;;;1.05;0.98;;;;;;;20.29;29.86;101573.34;7390410;19;20028;-59
2024/01/08 01:10:28;;;;;;;1.13;1.00;;;;;;;18.77;31.28;101578.94;7389342;19;20019;-59
2024/01/08 01:12:55;;;;;;;0.40;0.40;;;;;;;18.87;31.36;101580.34;7392663;19;20027;-59
2024/01/08 01:15:21;;;;;;;0.20;0.20;;;;;;;20.99;29.07;101580.00;7396198;19;20007;-59
2024/01/08 01:17:47;;;;;;;5.95;1.40;;;;;;;18.77;31.47;101587.41;7397412;19;20069;-59
2024/01/08 01:20:13;;;;;;;0.93;0.40;;;;;;;19.14;30.71;101588.44;7396845;19;20017;-59
2024/01/08 01:22:39;;;;;;;1.63;1.35;;;;;;;19.91;30.21;101576.53;7399790;19;20485;-60
2024/01/08 01:25:06;;;;;;;3.13;1.23;;;;;;;20.82;29.58;101576.28;7397185;19;20002;-60
2024/01/08 01:27:32;;;;;;;1.30;0.55;;;;;;;23.37;27.41;101584.44;7397033;19;20388;-60
2024/01/08 01:29:58;;;;;;;5.57;1.17;;;;;;;23.54;26.89;101582.31;7396643;19;20010;-59
2024/01/08 01:32:24;;;;;;;1.98;0.73;;;;;;;23.49;26.84;101583.88;7399405;19;20015;-60
2024/01/08 01:34:50;;;;;;;0.20;0.20;;;;;;;23.43;26.81;101577.44;7397645;19;20014;-59
2024/01/08 01:37:16;;;;;;;1.55;1.10;;;;;;;23.47;26.85;101580.78;7396526;19;20022;-59
2024/01/08 01:39:42;;;;;;;1.50;0.73;;;;;;;23.39;27.10;101576.91;7396196;19;20003;-60
2024/01/08 01:42:09;;;;;;;0.25;0.25;;;;;;;23.52;26.61;101582.81;7398196;19;20082;-59
2024/01/08 01:44:35;;;;;;;5.38;0.77;;;;;;;20.12;29.64;101583.69;7395697;19;20015;-60
2024/01/08 01:47:01;;;;;;;0.43;0.40;;;;;;;22.11;28.17;101579.13;7396710;19;20014;-60
2024/01/08 01:49:28;;;;;;;3.25;0.55;;;;;;;22.57;27.47;101587.94;7395645;19;20029;-60
2024/01/08 01:51:56;;;;;;;0.82;0.65;;;;;;;20.38;29.41;101590.09;7396481;19;20014;-59
2024/01/08 01:54:25;;;;;;;0.22;0.22;;;;;;;19.06;30.56;101590.13;7393021;19;20010;-60
2024/01/08 01:56:56;;;;;;;0.32;0.30;;;;;;;19.30;30.57;101595.56;7392900;19;20044;-59
2024/01/08 01:59:24;;;;;;;2.72;1.05;;;;;;;19.26;30.38;101597.84;7395381;19;20440;-60
2024/01/08 02:01:50;;;;;;;0.35;0.35;;;;;;;19.01;30.98;101599.31;7395104;19;20420;-60
2024/01/08 02:04:17;;;;;;;0.38;0.38;;;;;;;17.95;31.53;101593.19;7398439;19;20010;-60
2024/01/08 02:06:44;;;;;;;4.47;0.75;;;;;;;18.97;30.64;101603.59;7394568;19;20011;-59
2024/01/08 02:09:15;;;;;;;0.95;0.95;;;;;;;20.61;29.21;101608.84;7395274;19;20021;-59
2024/01/08 02:11:42;;;;;;;1.95;1.05;;;;;;;22.74;27.19;101590.78;7394694;19;20048;-60
2024/01/08 02:14:10;;;;;;;0.30;0.30;;;;;;;22.88;27.37;101594.63;7393554;19;20082;-59
2024/01/08 02:16:36;;;;;;;3.28;1.42;;;;;;;22.85;27.08;101595.69;7396643;19;20362;-59
2024/01/08 02:19:03;;;;;;;1.13;0.73;;;;;;;23.23;26.84;101594.81;7395127;19;20018;-59
2024/01/08 02:21:29;;;;;;;0.20;0.20;;;;;;;21.92;28.25;101600.03;7395100;19;20018;-59
2024/01/08 02:23:55;;;;;;;1.38;0.90;;;;;;;22.43;27.41;101599.56;7394883;19;20039;-58
2024/01/08 02:26:21;;;;;;;3.33;0.80;;;;;;;18.93;30.47;101603.78;7392478;19;20018;-59
2024/01/08 02:28:48;;;;;;;1.17;0.93;;;;;;;18.86;30.48;101598.56;7397320;19;20483;-59
2024/01/08 02:31:14;;;;;;;1.55;0.88;;;;;;;19.85;29.65;101598.31;7395747;19;20014;-59
2024/01/08 02:33:40;;;;;;;5.03;1.88;;;;;;;20.13;29.62;101591.69;7394839;19;20014;-58
2024/01/08 02:36:06;;;;;;;0.30;0.30;;;;;;;20.14;29.66;101589.63;7393186;19;20800;-58
2024/01/08 02:38:32;;;;;;;1.88;1.15;;;;;;;19.92;29.46;101586.56;7393173;19;20021;-58
2024/01/08 02:40:59;;;;;;;7.22;2.55;;;;;;;19.98;29.84;101596.66;7396850;19;20014;-59
2024/01/08 02:43:25;;;;;;;0.85;0.28;;;;;;;19.64;30.24;101606.81;7392790;19;20039;-59
2024/01/08 02:45:51;;;;;;;0.50;0.40;;;;;;;20.05;29.78;101607.53;7394571;19;20395;-58
2024/01/08 02:48:17;;;;;;;1.60;0.77;;;;;;;19.32;30.34;101619.25;7394975;19;20015;-59
2024/01/08 02:50:43;;;;;;;2.60;1.45;;;;;;;19.37;30.26;101610.09;7394295;19;20511;-59
2024/01/08 02:53:10;;;;;;;1.80;1.15;;;;;;;20.12;29.25;101606.31;7393629;19;20443;-59
2024/01/08 02:55:36;;;;;;;1.13;1.02;;;;;;;20.24;29.14;101608.00;7393875;19;20014;-58
2024/01/08 02:58:05;;;;;;;3.70;1.48;;;;;;;20.31;29.02;101613.22;7392458;19;20014;-59
2024/01/08 03:00:31;;;;;;;1.20;0.63;;;;;;;19.96;29.55;101604.09;7394374;19;20017;-59
2024/01/08 03:02:58;;;;;;;0.77;0.57;;;;;;;19.30;30.41;101616.13;7394154;19;20342;-59
2024/01/08 03:05:24;;;;;;;0.70;0.70;;;;;;;18.93;31.05;101620.72;7393022;19;20505;-59
2024/01/08 03:07:50;;;;;;;3.15;1.77;;;;;;;20.06;29.95;101611.13;7393184;19;20014;-59
2024/01/08 03:10:16;;;;;;;1.98;0.80;;;;;;;20.47;30.07;101603.28;7393552;19;20034;-59
2024/01/08 03:12:42;;;;;;;0.85;0.85;;;;;;;21.09;29.51;101615.34;7393513;19;20015;-59
2024/01/08 03:15:09;;;;;;;2.00;1.13;;;;;;;18.71;31.56;101634.53;7394899;19;20032;-59
2024/01/08 03:17:35;;;;;;;6.93;0.60;;;;;;;18.35;31.74;101620.78;7393340;19;20011;-59
2024/01/08 03:20:02;;;;;;;2.38;0.93;;;;;;;18.44;31.87;101629.97;7394289;19;20014;-58
2024/01/08 03:22:29;;;;;;;0.30;0.30;;;;;;;18.12;31.94;101631.69;7397949;19;20083;-59
2024/01/08 03:24:55;;;;;;;3.20;1.25;;;;;;;19.05;31.54;101633.75;7391854;19;20511;-59
2024/01/08 03:27:21;;;;;;;1.00;0.95;;;;;;;19.68;31.11;101634.88;7393549;19;20417;-59
2024/01/08 03:29:47;;;;;;;2.83;0.98;;;;;;;21.51;29.30;101627.94;7393094;19;20015;-59
2024/01/08 03:32:13;;;;;;;2.08;1.13;;;;;;;21.98;28.93;101627.13;7396938;19;20014;-59
2024/01/08 03:34:42;;;;;;;1.08;0.90;;;;;;;21.54;29.24;101630.56;7395087;19;20625;-59
2024/01/08 03:37:09;;;;;;;2.20;1.13;;;;;;;21.18;29.37;101627.78;7392797;19;20074;-59
2024/01/08 03:39:35;;;;;;;1.83;1.35;;;;;;;20.54;30.16;101637.59;7393191;19;20013;-59
2024/01/08 03:42:01;;;;;;;3.70;0.95;;;;;;;20.99;29.96;101633.81;7396711;19;20017;-59
2024/01/08 03:44:28;;;;;;;1.20;0.65;;;;;;;21.87;29.30;101632.75;7392928;19;20014;-59
2024/01/08 03:46:54;;;;;;;2.85;1.00;;;;;;;21.84;29.10;101633.78;7392370;19;20006;-59
2024/01/08 03:49:20;;;;;;;0.50;0.50;;;;;;;23.25;28.48;101635.63;7391709;19;20010;-59
2024/01/08 03:51:46;;;;;;;0.73;0.60;;;;;;;23.42;27.66;101640.50;7394910;19;20066;-59
2024/01/08 03:54:12;;;;;;;1.55;1.33;;;;;;;23.57;27.66;101641.75;7392125;19;20034;-59
2024/01/08 03:56:39;;;;;;;1.52;0.90;;;;;;;22.87;28.17;101638.56;7392616;19;20124;-59
2024/01/08 03:59:05;;;;;;;8.20;1.17;;;;;;;22.43;28.60;101642.94;7392025;19;20368;-59
2024/01/08 04:01:31;;;;;;;11.85;1.20;;;;;;;22.20;28.78;101638.50;7394465;19;20010;-59
2024/01/08 04:03:57;;;;;;;5.72;1.40;;;;;;;22.59;28.44;101636.50;7395354;19;20078;-59
2024/01/08 04:06:23;;;;;;;18.08;2.75;;;;;;;22.75;28.55;101639.84;7391869;19;20018;-59
2024/01/08 04:08:50;;;;;;;1.00;1.00;;;;;;;22.77;28.45;101640.88;7391151;19;20368;-59
2024/01/08 04:11:16;;;;;;;6.03;1.60;;;;;;;22.54;28.48;101640.06;7393505;19;20010;-59
2024/01/08 04:13:42;;;;;;;12.75;1.65;;;;;;;22.35;29.06;101647.53;7391413;19;20007;-59
2024/01/08 04:16:08;;;;;;;1.23;1.13;;;;;;;22.32;28.93;101640.06;7392103;19;20102;-59
2024/01/08 04:18:34;;;;;;;1.52;1.02;;;;;;;21.93;29.29;101642.06;7391827;19;20015;-59
2024/01/08 04:21:00;;;;;;;29.88;1.83;;;;;;;21.82;29.26;101636.31;7392957;19;20090;-59
2024/01/08 04:23:26;;;;;;;5.10;2.05;;;;;;;22.11;29.12;101627.38;7392196;19;20088;-59
2024/01/08 04:25:52;;;;;;;1.42;1.33;;;;;;;22.15;29.32;101630.78;7391590;19;20018;-59
2024/01/08 04:28:20;;;;;;;8.27;1.58;;;;;;;22.05;29.26;101628.66;7391989;19;20014;-59
2024/01/08 04:30:46;;;;;;;7.05;1.83;;;;;;;20.00;31.12;101632.94;7392594;19;20011;-59
2024/01/08 04:33:12;;;;;;;3.85;0.77;;;;;;;20.21;31.05;101643.72;7392424;19;20360;-59
2024/01/08 04:35:39;;;;;;;1.00;0.60;;;;;;;22.06;29.26;101639.50;7391618;19;20019;-59
2024/01/08 04:38:05;;;;;;;2.38;1.40;;;;;;;23.11;28.59;101638.75;7392066;19;20043;-59
2024/01/08 04:40:31;;;;;;;0.70;0.57;;;;;;;22.87;28.28;101638.56;7390962;19;20412;-59
2024/01/08 04:42:57;;;;;;;0.75;0.65;;;;;;;23.47;27.90;101639.72;7391245;19;20014;-59
2024/01/08 04:45:23;;;;;;;0.93;0.70;;;;;;;23.74;27.58;101636.75;7390956;19;20479;-59
2024/01/08 04:47:49;;;;;;;1.15;0.93;;;;;;;23.97;27.32;101643.88;7394252;19;20014;-59
2024/01/08 04:50:15;;;;;;;2.17;1.10;;;;;;;23.54;27.72;101639.94;7397657;19;20364;-59
2024/01/08 04:52:41;;;;;;;4.78;2.42;;;;;;;23.24;27.92;101648.28;7402612;19;20015;-59
2024/01/08 04:55:08;;;;;;;0.47;0.28;;;;;;;23.47;28.00;101640.50;7398977;19;20007;-59
2024/01/08 04:57:34;;;;;;;0.17;0.17;;;;;;;22.98;28.41;101635.69;7397944;19;20014;-59
2024/01/08 05:00:00;;;;;;;3.65;1.77;;;;;;;21.95;29.31;101638.69;7398757;19;20007;-59
2024/01/08 05:02:26;;;;;;;1.15;0.35;;;;;;;21.67;29.57;101639.38;7402227;19;20074;-59
2024/01/08 05:04:52;;;;;;;0.68;0.47;;;;;;;21.67;29.79;101647.09;7402490;19;20404;-59
2024/01/08 05:07:18;;;;;;;1.35;1.25;;;;;;;21.56;29.75;101647.03;7397543;19;20011;-59
2024/01/08 05:09:44;;;;;;;6.25;2.05;;;;;;;21.64;29.82;101646.06;7397645;19;20092;-59
2024/01/08 05:12:10;;;;;;;1.70;1.25;;;;;;;21.73;29.69;101642.22;7401494;19;20034;-59
2024/01/08 05:14:37;;;;;;;4.35;1.80;;;;;;;22.37;29.05;101647.81;7396074;19;20022;-59
2024/01/08 05:17:03;;;;;;;1.02;1.00;;;;;;;22.53;29.06;101638.53;7398381;19;20023;-58
2024/01/08 05:19:29;;;;;;;0.88;0.88;;;;;;;22.58;29.05;101657.66;7397708;19;20022;-59
2024/01/08 05:21:55;;;;;;;12.38;1.27;;;;;;;22.63;29.08;101642.69;7400454;19;20013;-59
2024/01/08 05:24:21;;;;;;;4.18;1.63;;;;;;;22.72;29.14;101641.66;7397522;19;20015;-59
2024/01/08 05:26:47;;;;;;;2.67;1.30;;;;;;;22.14;29.70;101639.78;7397244;19;20564;-59
2024/01/08 05:29:14;;;;;;;0.35;0.35;;;;;;;21.97;29.47;101630.44;7398448;19;20459;-59
2024/01/08 05:31:40;;;;;;;1.08;0.50;;;;;;;21.82;29.64;101642.81;7399057;19;20011;-59
2024/01/08 05:34:06;;;;;;;2.63;0.65;;;;;;;22.24;29.47;101633.34;7398845;19;20017;-59
2024/01/08 05:36:32;;;;;;;0.75;0.75;;;;;;;22.57;29.38;101641.88;7396906;19;20007;-59
2024/01/08 05:38:59;;;;;;;0.52;0.52;;;;;;;22.73;28.82;101634.69;7396902;19;20014;-59
2024/01/08 05:41:26;;;;;;;2.22;2.05;;;;;;;23.11;28.92;101636.69;7398024;19;20343;-59
2024/01/08 05:43:52;;;;;;;0.63;0.45;;;;;;;23.47;28.59;101639.72;7396976;19;20019;-58
2024/01/08 05:46:18;;;;;;;9.32;2.35;;;;;;;23.54;28.08;101637.09;7396616;19;20014;-58
2024/01/08 05:48:44;;;;;;;0.50;0.50;;;;;;;23.55;28.42;101646.41;7397055;19;20090;-59
2024/01/08 05:51:10;;;;;;;1.17;1.02;;;;;;;23.79;28.06;101650.19;7398528;19;20336;-59
2024/01/08 05:53:36;;;;;;;0.40;0.40;;;;;;;23.77;27.92;101641.41;7394863;19;20017;-59
2024/01/08 05:56:03;;;;;;;4.28;0.55;;;;;;;22.86;28.71;101642.69;7396497;19;20010;-59
2024/01/08 05:58:32;;;;;;;0.73;0.40;;;;;;;23.11;28.56;101636.69;7397325;19;20010;-59
2024/01/08 06:00:59;;;;;;;0.70;0.70;;;;;;;22.98;28.85;101647.81;7396873;19;20470;-59
2024/01/08 06:03:25;;;;;;;3.58;1.35;;;;;;;22.70;28.90;101654.84;7397830;19;20027;-59
2024/01/08 06:05:51;;;;;;;2.38;0.82;;;;;;;23.10;28.85;101659.97;7396446;19;20443;-59
2024/01/08 06:08:17;;;;;;;2.38;1.25;;;;;;;22.83;28.84;101655.06;7396913;19;20026;-59
2024/01/08 06:10:43;;;;;;;0.90;0.85;;;;;;;22.00;29.89;101652.91;7396057;19;20355;-59
2024/01/08 06:13:10;;;;;;;1.05;0.98;;;;;;;22.32;29.54;101654.28;7396278;19;20023;-59
2024/01/08 06:15:37;;;;;;;2.17;1.50;;;;;;;22.59;29.17;101652.75;7395311;19;20467;-59
2024/01/08 06:18:04;;;;;;;1.90;0.80;;;;;;;22.51;29.71;101652.47;7396566;19;20526;-59
2024/01/08 06:20:31;;;;;;;0.50;0.50;;;;;;;22.74;29.49;101646.84;7396896;19;20015;-59
2024/01/08 06:22:57;;;;;;;5.93;0.98;;;;;;;22.60;29.64;101646.56;7400678;19;20018;-60
2024/01/08 06:25:23;;;;;;;0.50;0.40;;;;;;;22.65;29.39;101649.94;7396456;19;20355;-59
2024/01/08 06:27:49;;;;;;;4.30;1.52;;;;;;;22.80;28.86;101647.59;7395733;19;20011;-59
2024/01/08 06:30:17;;;;;;;7.65;1.85;;;;;;;22.09;29.73;101638.47;7395700;19;20011;-59
2024/01/08 06:32:44;;;;;;;5.28;2.05;;;;;;;22.78;29.01;101647.34;7399905;19;20014;-60
2024/01/08 06:35:10;;;;;;;1.85;0.75;;;;;;;22.85;29.34;101649.66;7400081;19;20331;-59
2024/01/08 06:37:36;;;;;;;2.05;0.85;;;;;;;21.79;30.02;101660.03;7395555;19;20033;-59
2024/01/08 06:40:03;;;;;;;8.98;0.77;;;;;;;21.66;30.32;101657.66;7395397;19;20497;-59
2024/01/08 06:42:29;;;;;;;1.83;1.45;;;;;;;21.90;30.12;101651.59;7398098;19;20025;-60
2024/01/08 06:44:55;;;;;;;1.00;0.75;;;;;;;21.67;30.35;101653.56;7395114;19;20002;-59
2024/01/08 06:47:21;;;;;;;3.42;1.17;;;;;;;21.67;30.38;101652.78;7394759;19;20015;-59
2024/01/08 06:49:48;;;;;;;2.45;0.82;;;;;;;21.60;30.64;101650.41;7394613;19;20014;-59
2024/01/08 06:52:14;;;;;;;1.20;0.70;;;;;;;21.52;30.76;101652.19;7398048;19;20018;-59
2024/01/08 06:54:40;;;;;;;1.77;0.45;;;;;;;21.55;30.80;101656.84;7392630;19;20352;-59
2024/01/08 06:57:06;;;;;;;0.45;0.45;;;;;;;21.90;30.57;101657.25;7394673;19;20021;-59
2024/01/08 06:59:32;;;;;;;0.40;0.40;;;;;;;22.41;30.00;101665.38;7393383;19;20023;-59
2024/01/08 07:01:58;;;;;;;0.20;0.20;;;;;;;22.20;29.71;101654.78;7395866;19;20022;-59
2024/01/08 07:04:24;;;;;;;0.43;0.43;;;;;;;21.95;30.35;101656.50;7397366;19;20044;-59
2024/01/08 07:06:51;;;;;;;1.45;1.35;;;;;;;21.81;30.30;101668.78;7393289;19;20011;-59
2024/01/08 07:09:17;;;;;;;0.15;0.15;;;;;;;21.77;30.44;101662.59;7394288;19;20042;-59
2024/01/08 07:11:43;;;;;;;0.40;0.30;;;;;;;21.77;30.67;101656.91;7394641;19;20078;-58
2024/01/08 07:14:09;;;;;;;2.25;0.98;;;;;;;21.82;30.49;101656.19;7392411;19;20074;-59
2024/01/08 07:16:36;;;;;;;0.65;0.52;;;;;;;22.60;29.97;101663.63;7394085;19;20011;-59
2024/01/08 07:19:03;;;;;;;0.30;0.30;;;;;;;22.70;29.75;101663.38;7393054;19;20070;-59
2024/01/08 07:21:29;;;;;;;0.30;0.30;;;;;;;22.12;30.44;101648.81;7398258;19;20467;-59
2024/01/08 07:23:55;;;;;;;5.82;0.85;;;;;;;22.04;30.37;101653.44;7394022;19;20010;-59
2024/01/08 07:26:21;;;;;;;0.52;0.52;;;;;;;22.31;30.08;101654.75;7393605;19;20018;-59
2024/01/08 07:28:49;;;;;;;2.78;0.85;;;;;;;22.64;29.74;101657.66;7394472;19;20576;-59
2024/01/08 07:31:16;;;;;;;0.50;0.50;;;;;;;22.70;29.60;101654.84;7394625;19;20018;-59
2024/01/08 07:33:42;;;;;;;0.70;0.70;;;;;;;22.70;29.78;101660.53;7394364;19;20102;-60
2024/01/08 07:36:09;;;;;;;0.30;0.30;;;;;;;22.42;29.78;101657.63;7392730;19;20022;-59
2024/01/08 07:38:36;;;;;;;7.05;1.25;;;;;;;22.50;30.20;101653.75;7392482;19;20022;-59
2024/01/08 07:41:02;;;;;;;0.32;0.32;;;;;;;22.46;29.96;101658.91;7392840;19;20470;-60
2024/01/08 07:43:28;;;;;;;0.57;0.57;;;;;;;24.62;27.96;101646.06;7393090;19;20349;-60
2024/01/08 07:45:55;;;;;;;4.53;1.85;;;;;;;24.98;27.89;101649.63;7393154;19;20010;-60
2024/01/08 07:48:21;;;;;;;0.35;0.35;;;;;;;25.15;27.91;101641.69;7392590;19;20019;-60
2024/01/08 07:50:47;;;;;;;0.30;0.30;;;;;;;26.32;26.75;101638.91;7392122;19;20007;-60
2024/01/08 07:53:14;;;;;;;3.65;0.55;;;;;;;26.69;26.49;101638.81;7396244;19;20007;-59
2024/01/08 07:55:40;;;;;;;10.88;1.23;;;;;;;27.27;25.82;101649.47;7391566;19;20014;-59
2024/01/08 07:58:06;;;;;;;2.83;0.57;;;;;;;26.33;26.66;101646.16;7393400;19;20021;-60
2024/01/08 08:00:33;;;;;;;0.20;0.20;;;;;;;26.42;26.10;101637.19;7392937;19;20018;-59
2024/01/08 08:02:59;;;;;;;26.50;1.45;;;;;;;26.45;26.15;101644.66;7396539;19;20014;-59
2024/01/08 08:05:25;;;;;;;0.75;0.52;;;;;;;24.94;27.76;101644.25;7392676;19;20395;-59
2024/01/08 08:07:51;;;;;;;0.88;0.35;;;;;;;25.65;26.92;101632.56;7392527;19;20011;-59
2024/01/08 08:10:18;;;;;;;0.30;0.30;;;;;;;25.58;27.06;101644.59;7393058;19;20467;-59
2024/01/08 08:12:44;;;;;;;1.08;0.73;;;;;;;26.18;26.13;101638.06;7395954;19;20007;-59
2024/01/08 08:15:10;;;;;;;23.15;1.42;;;;;;;26.03;26.34;101642.69;7390494;19;20015;-59
2024/01/08 08:17:42;;;;;;;2.05;0.55;;;;;;;26.07;26.33;101646.00;7392703;19;20088;-59
2024/01/08 08:20:10;;;;;;;0.15;0.15;;;;;;;26.10;26.88;101651.44;7392719;19;20022;-59
2024/01/08 08:22:36;;;;;;;0.63;0.63;;;;;;;25.03;27.37;101655.31;7393265;19;20367;-59
2024/01/08 08:25:03;;;;;;;2.53;0.93;;;;;;;25.20;27.06;101655.91;7398211;19;20079;-59
2024/01/08 08:27:29;;;;;;;0.52;0.52;;;;;;;26.18;26.26;101657.31;7399744;19;20011;-59
2024/01/08 08:29:56;;;;;;;1.83;0.75;;;;;;;25.96;26.63;101663.31;7399695;19;20396;-59
2024/01/08 08:32:22;;;;;;;0.50;0.50;;;;;;;25.81;26.79;101665.84;7402024;19;20044;-59
2024/01/08 08:34:48;;;;;;;0.68;0.52;;;;;;;26.12;26.70;101670.88;7400677;19;20332;-58
2024/01/08 08:37:15;;;;;;;2.40;0.85;;;;;;;26.84;25.93;101666.91;7397620;19;20589;-58
2024/01/08 08:39:41;;;;;;;1.27;0.82;;;;;;;26.37;26.46;101669.47;7398952;19;20014;-58
2024/01/08 08:42:08;;;;;;;3.08;1.10;;;;;;;25.57;26.63;101663.81;7401910;19;20355;-59
2024/01/08 08:44:34;;;;;;;0.73;0.55;;;;;;;25.71;27.02;101664.69;7399134;19;20479;-59
2024/01/08 08:47:02;;;;;;;0.68;0.68;;;;;;;25.83;26.91;101666.06;7399281;19;20020;-59
2024/01/08 08:49:28;;;;;;;1.40;1.20;;;;;;;26.07;26.88;101663.94;7398946;19;20459;-59
2024/01/08 08:51:54;;;;;;;1.23;1.00;;;;;;;26.82;25.80;101658.88;7395866;19;20018;-93
2024/01/08 08:54:21;;;;;;;2.45;0.80;;;;;;;26.95;26.14;101667.50;7395885;19;20015;-93
2024/01/08 08:56:47;;;;;;;1.63;0.77;;;;;;;27.16;25.69;101669.75;7396012;19;20007;-93
2024/01/08 08:59:13;;;;;;;2.10;1.38;;;;;;;27.34;25.84;101674.56;7398506;19;20017;-93
2024/01/08 09:01:39;;;;;;;15.32;0.85;;;;;;;27.64;25.10;101677.91;7393754;19;20037;-93
2024/01/08 09:04:05;;;;;;;1.27;0.50;;;;;;;27.99;24.90;101686.03;7394280;19;20007;-93
2024/01/08 09:06:34;;;;;;;0.77;0.28;;;;;;;28.05;25.33;101686.69;7391679;19;20011;-94
2024/01/08 09:09:00;;;;;;;2.63;0.57;;;;;;;27.91;25.49;101699.47;7393593;19;20014;-95
2024/01/08 09:11:27;;;;;;;1.88;1.35;;;;;;;28.19;24.89;101693.94;7392376;19;20329;-95
2024/01/08 09:13:53;;;;;;;0.43;0.30;;;;;;;28.29;25.19;101700.72;7394818;19;20006;-94
2024/01/08 09:16:20;;;;;;;0.45;0.45;;;;;;;27.63;25.45;101705.78;7396642;19;20002;-94
2024/01/08 09:18:46;;;;;;;3.38;0.95;;;;;;;26.44;26.26;101705.22;7396229;19;20016;-93
2024/01/08 09:21:13;;;;;;;6.07;2.10;;;;;;;29.02;24.72;101700.50;7394915;19;20045;-94
2024/01/08 09:23:40;;;;;;;7.70;0.70;;;;;;;29.38;23.97;101706.38;7395539;19;20412;-94
2024/01/08 09:26:06;;;;;;;8.93;3.05;;;;;;;29.65;24.18;101713.44;7396694;19;20005;-93
2024/01/08 09:28:33;;;;;;;3.40;2.00;;;;;;;29.71;23.78;101714.06;7395715;19;20019;-94
2024/01/08 09:31:03;;;;;;;1.83;0.90;;;;;;;29.28;23.94;101713.19;7396502;19;20073;-93
2024/01/08 09:33:30;;;;;;;1.60;0.73;;;;;;;28.74;24.77;101716.91;7396282;19;20043;-94
2024/01/08 09:35:56;;;;;;;3.90;0.40;;;;;;;28.77;24.57;101716.56;7396806;19;20029;-94
2024/01/08 09:38:22;;;;;;;4.18;0.55;;;;;;;28.22;24.84;101718.59;7396327;19;20892;-94
2024/01/08 09:40:49;;;;;;;6.32;1.98;;;;;;;28.32;25.07;101719.69;7394451;19;20003;-93
2024/01/08 09:43:15;;;;;;;2.15;1.15;;;;;;;27.79;25.13;101715.34;7396714;19;20010;-94
2024/01/08 09:46:04;;;;;;;9.13;1.40;;;;;;;27.20;25.79;101724.53;7395439;19;20002;-94
2024/01/08 09:48:31;;;;;;;0.55;0.43;;;;;;;26.71;26.13;101724.81;7396544;19;20011;-94
2024/01/08 09:51:01;;;;;;;1.55;1.45;;;;;;;26.62;26.00;101730.13;7394373;19;20002;-93
2024/01/08 09:53:29;;;;;;;0.57;0.57;;;;;;;26.58;26.35;101736.19;7393834;19;20069;-94
2024/01/08 09:55:56;;;;;;;1.23;1.00;;;;;;;26.10;26.63;101742.03;7394572;19;20025;-94
2024/01/08 09:58:24;;;;;;;1.38;1.02;;;;;;;25.17;27.66;101736.81;7393603;19;20006;-93
2024/01/08 10:00:50;;;;;;;3.30;0.70;;;;;;;25.91;26.95;101736.28;7393512;19;20011;-93
2024/01/08 10:03:16;;;;;;;3.33;1.23;;;;;;;24.71;27.59;101754.03;7394895;19;20015;-86
2024/01/08 10:05:43;;;;;;;4.03;0.90;;;;;;;25.06;27.89;101754.00;7393961;19;20452;-95
2024/01/08 10:08:09;;;;;;;1.75;0.73;;;;;;;24.82;27.89;101757.56;7396164;19;19999;-96
2024/01/08 10:10:35;;;;;;;0.85;0.75;;;;;;;24.65;28.22;101753.25;7397226;19;20014;-93
2024/01/08 10:13:02;;;;;;;5.00;1.17;;;;;;;24.72;28.08;101764.09;7414358;19;20037;-95
2024/01/08 10:15:29;;;;;;;1.58;1.10;;;;;;;24.63;27.89;101761.56;7394144;19;20010;-94
2024/01/08 10:17:56;;;;;;;4.03;1.55;;;;;;;24.98;28.16;101758.75;7395956;19;20006;-93
2024/01/08 10:20:22;;;;;;;1.77;1.65;;;;;;;25.58;27.79;101756.66;7403285;19;20037;-92
2024/01/08 10:23:08;;;;;;;2.25;1.25;;;;;;;25.83;27.39;101763.13;7393309;19;20472;-50
2024/01/08 10:25:38;;;;;;;1.10;0.75;;;;;;;25.18;27.85;101761.19;7392306;19;20478;-49
2024/01/08 10:28:10;;;;;;;1.00;0.93;;;;;;;25.39;27.84;101753.72;7394034;19;20078;-49
2024/01/08 10:30:39;;;;;;;1.67;0.35;;;;;;;26.12;27.09;101756.56;7393807;19;20013;-49
2024/01/08 10:33:07;;;;;;;1.55;1.17;;;;;;;25.40;27.43;101755.25;7397195;19;20345;-49
2024/01/08 10:35:35;;;;;;;15.52;1.38;;;;;;;24.65;28.11;101759.75;7396021;19;20018;-49
2024/01/08 10:38:03;;;;;;;2.33;1.05;;;;;;;25.68;27.59;101751.38;7396528;19;20015;-48
2024/01/08 10:40:30;;;;;;;0.35;0.35;;;;;;;24.60;28.24;101760.53;7396406;19;20022;-48
2024/01/08 10:42:57;;;;;;;0.20;0.20;;;;;;;24.98;28.23;101764.44;7399067;19;20343;-49
2024/01/08 10:45:23;;;;;;;1.40;0.65;;;;;;;27.29;26.13;101752.72;7395200;19;20330;-49
2024/01/08 10:47:53;;;;;;;7.47;1.30;;;;;;;27.86;26.20;101760.50;7392150;19;20354;-49
2024/01/08 10:50:21;;;;;;;10.60;1.85;;;;;;;25.96;27.43;101761.16;7394724;19;20420;-49
2024/01/08 10:52:56;;;;;;;2.40;1.00;;;;;;;26.33;26.84;101763.31;7398350;19;20015;-49
2024/01/08 10:55:23;;;;;;;0.80;0.80;;;;;;;26.33;26.97;101760.44;7395873;19;20022;-48
2024/01/08 10:58:04;;;;;;;0.38;0.38;;;;;;;27.76;25.92;101745.09;7394915;19;20104;-48
2024/01/08 11:00:31;;;;;;;;;;;;;;;28.31;24.85;101755.38;7395008;19;20011;-48
2024/01/08 11:02:57;;;;;;;0.47;0.47;;;;;;;28.36;24.86;101751.63;7397401;19;20242;-48
2024/01/08 11:05:27;;;;;;;0.50;0.50;;;;;;;26.80;26.10;101753.03;7394371;19;20018;-48
2024/01/08 11:07:54;;;;;;;0.98;0.60;;;;;;;26.51;25.74;101742.50;7394609;19;20019;-48
2024/01/08 11:10:25;;;;;;;0.52;0.52;;;;;;;26.17;25.52;101747.16;7395088;19;20010;-48
2024/01/08 11:12:55;;;;;;;0.38;0.35;;;;;;;25.62;25.85;101739.25;7394587;19;20342;-48
2024/01/08 11:15:28;;;;;;;0.40;0.40;;;;;;;26.20;25.27;101740.38;7392547;19;20010;-48
2024/01/08 11:18:03;;;;;;;0.20;0.10;;;;;;;26.15;25.68;101732.66;7394253;19;20026;-48
2024/01/08 11:20:46;;;;;;;0.20;0.20;;;;;;;26.70;25.21;101726.13;7394579;19;20010;-48
2024/01/08 11:23:35;;;;;;;0.60;0.60;;;;;;;26.90;24.72;101719.84;7397505;19;20016;-47